createdAt,value
2018-09-26T00:01:52.242Z,101469.47
2018-09-26T00:04:26.568Z,101456.87
2018-09-26T00:06:55.747Z,101436.30
2018-09-26T00:09:24.500Z,101441.69
2018-09-26T00:11:53.424Z,101433.13
2018-09-26T00:14:22.362Z,101429.58
2018-09-26T00:16:51.216Z,101433.13
2018-09-26T00:19:19.981Z,101418.33
2018-09-26T00:21:48.815Z,101416.98
2018-09-26T00:24:17.632Z,101406.21
2018-09-26T00:26:46.405Z,101416.98
2018-09-26T00:29:15.146Z,101391.02
2018-09-26T00:31:44.069Z,101391.02
2018-09-26T00:34:12.931Z,101386.41
2018-09-26T00:36:41.689Z,101374.39
2018-09-26T00:39:10.511Z,101371.70
2018-09-26T00:41:39.311Z,101359.10
2018-09-26T00:44:09.246Z,101359.10
2018-09-26T00:46:38.091Z,101352.86
2018-09-26T00:49:06.981Z,101352.50
2018-09-26T00:51:35.751Z,101340.39
2018-09-26T00:54:04.564Z,101333.66
2018-09-26T00:56:33.331Z,101327.90
2018-09-26T00:59:02.096Z,101323.86
2018-09-26T01:01:30.989Z,101321.66
2018-09-26T01:03:59.776Z,101317.23
2018-09-26T01:06:28.618Z,101314.55
2018-09-26T01:08:57.332Z,101304.29
2018-09-26T01:11:26.111Z,101300.36
2018-09-26T01:13:54.859Z,101284.94
2018-09-26T01:16:23.760Z,101266.23
2018-09-26T01:18:52.549Z,101254.59
2018-09-26T01:21:21.315Z,101238.45
2018-09-26T01:23:50.127Z,101237.59
2018-09-26T01:26:18.900Z,101228.16
2018-09-26T01:28:48.149Z,101220.09
2018-09-26T01:31:16.919Z,101213.36
2018-09-26T01:33:45.710Z,101206.77
2018-09-26T01:36:14.532Z,101203.11
2018-09-26T01:38:43.313Z,101200.05
2018-09-26T01:41:12.235Z,101193.31
2018-09-26T01:43:40.979Z,101185.72
2018-09-26T01:46:09.740Z,101183.03
2018-09-26T01:48:38.556Z,101178.12
2018-09-26T01:51:07.412Z,101188.41
2018-09-26T01:53:36.299Z,101181.34
2018-09-26T01:56:05.183Z,101174.09
2018-09-26T01:58:33.905Z,101155.77
2018-09-26T02:01:02.661Z,101140.73
2018-09-26T02:03:31.432Z,101145.97
2018-09-26T02:06:00.228Z,101138.87
2018-09-26T02:08:28.969Z,101128.63
2018-09-26T02:10:57.712Z,101112.81
2018-09-26T02:13:26.527Z,101127.76
2018-09-26T02:15:55.264Z,101108.92
2018-09-26T02:18:24.159Z,101100.36
2018-09-26T02:20:53.004Z,101096.33
2018-09-26T02:23:21.751Z,101094.12
2018-09-26T02:25:50.517Z,101092.29
2018-09-26T02:28:19.332Z,101079.55
2018-09-26T02:30:48.216Z,101077.97
2018-09-26T02:33:16.975Z,101065.86
2018-09-26T02:35:45.775Z,101065.72
2018-09-26T02:38:14.505Z,101064.86
2018-09-26T02:40:43.324Z,101062.69
2018-09-26T02:43:12.123Z,101048.71
2018-09-26T02:45:40.851Z,101044.81
2018-09-26T02:48:09.666Z,101048.37
2018-09-26T02:50:38.414Z,101044.67
2018-09-26T02:53:07.267Z,101033.56
2018-09-26T02:55:36.009Z,101031.73
2018-09-26T02:58:05.255Z,101019.63
2018-09-26T03:00:34.013Z,101007.52
2018-09-26T03:03:02.932Z,100997.58
2018-09-26T03:05:31.661Z,100994.89
2018-09-26T03:08:00.399Z,100992.72
2018-09-26T03:10:29.154Z,100989.16
2018-09-26T03:12:57.974Z,100982.06
2018-09-26T03:15:26.779Z,100970.81
2018-09-26T03:17:55.508Z,100976.91
2018-09-26T03:20:24.315Z,100964.45
2018-09-26T03:22:53.084Z,100960.28
2018-09-26T03:25:21.861Z,100940.35
2018-09-26T03:27:50.633Z,100939.38
2018-09-26T03:30:19.445Z,100913.44
2018-09-26T03:32:48.324Z,100902.19
2018-09-26T03:35:17.024Z,100895.61
2018-09-26T03:37:45.744Z,100887.53
2018-09-26T03:40:14.488Z,100878.12
2018-09-26T03:42:43.209Z,100872.36
2018-09-26T03:45:11.987Z,100856.22
2018-09-26T03:47:40.854Z,100850.45
2018-09-26T03:50:09.661Z,100844.25
2018-09-26T03:52:38.445Z,100838.87
2018-09-26T03:55:07.464Z,100843.73
2018-09-26T03:57:36.276Z,100844.36
2018-09-26T04:00:05.287Z,100843.39
2018-09-26T04:02:34.107Z,100828.22
2018-09-26T04:05:03.058Z,100823.20
2018-09-26T04:07:31.845Z,100822.35
2018-09-26T04:10:00.827Z,100820.63
2018-09-26T04:12:30.314Z,100834.57
2018-09-26T04:14:59.097Z,100818.09
2018-09-26T04:17:27.909Z,100814.39
2018-09-26T04:19:56.854Z,100810.02
2018-09-26T04:22:25.643Z,100815.39
2018-09-26T04:24:54.381Z,100809.16
2018-09-26T04:27:23.319Z,100797.53
2018-09-26T04:29:52.077Z,100802.91
2018-09-26T04:32:20.827Z,100792.64
2018-09-26T04:34:49.620Z,100795.33
2018-09-26T04:37:18.426Z,100783.00
2018-09-26T04:39:47.219Z,100769.55
2018-09-26T04:42:16.055Z,100758.78
2018-09-26T04:44:44.781Z,100752.43
2018-09-26T04:47:13.520Z,100743.64
2018-09-26T04:49:42.393Z,100716.25
2018-09-26T04:52:11.132Z,100713.05
2018-09-26T04:54:39.903Z,100697.42
2018-09-26T04:57:08.648Z,100682.11
2018-09-26T04:59:37.463Z,100675.91
2018-09-26T05:02:06.334Z,100667.83
2018-09-26T05:04:35.092Z,100660.25
2018-09-26T05:07:04.139Z,100666.97
2018-09-26T05:09:32.905Z,100656.55
2018-09-26T05:12:01.834Z,100646.80
2018-09-26T05:14:30.630Z,100625.76
2018-09-26T05:16:59.470Z,100632.48
2018-09-26T05:19:28.304Z,100619.03
2018-09-26T05:21:57.159Z,100619.03
2018-09-26T05:24:26.041Z,100610.47
2018-09-26T05:26:54.841Z,100618.06
2018-09-26T05:29:23.691Z,100614.52
2018-09-26T05:31:52.468Z,100606.44
2018-09-26T05:34:21.230Z,100595.31
2018-09-26T05:36:50.040Z,100583.58
2018-09-26T05:39:18.858Z,100570.98
2018-09-26T05:41:47.638Z,100580.52
2018-09-26T05:44:16.468Z,100572.44
2018-09-26T05:46:46.133Z,100548.23
2018-09-26T05:49:14.916Z,100556.67
2018-09-26T05:51:43.828Z,100549.95
2018-09-26T05:54:12.650Z,100537.84
2018-09-26T05:56:41.472Z,100527.56
2018-09-26T05:59:10.332Z,100521.21
2018-09-26T06:01:39.168Z,100524.39
2018-09-26T06:04:07.988Z,100505.19
2018-09-26T06:06:36.841Z,100502.98
2018-09-26T06:09:09.680Z,100502.01
2018-09-26T06:11:38.453Z,100486.36
2018-09-26T06:14:07.499Z,100473.92
2018-09-26T06:16:36.309Z,100463.98
2018-09-26T06:19:05.291Z,100473.06
2018-09-26T06:21:34.091Z,100465.84
2018-09-26T06:24:02.997Z,100448.00
2018-09-26T06:26:31.867Z,100447.50
2018-09-26T06:29:00.724Z,100439.92
2018-09-26T06:31:29.628Z,100434.55
2018-09-26T06:33:58.385Z,100440.30
2018-09-26T06:36:27.239Z,100431.37
2018-09-26T06:38:56.044Z,100416.08
2018-09-26T06:41:24.834Z,100425.50
2018-09-26T06:43:53.616Z,100398.59
2018-09-26T06:46:22.385Z,100397.25
2018-09-26T06:48:51.409Z,100380.59
2018-09-26T06:51:20.261Z,100373.05
2018-09-26T06:53:49.111Z,100368.36
2018-09-26T06:56:17.939Z,100353.56
2018-09-26T06:58:46.754Z,100355.25
2018-09-26T07:01:15.570Z,100343.66
2018-09-26T07:03:44.371Z,100332.37
2018-09-26T07:06:13.153Z,100330.05
2018-09-26T07:08:41.935Z,100323.17
2018-09-26T07:11:10.916Z,100318.65
2018-09-26T07:13:39.729Z,100310.25
2018-09-26T07:16:08.538Z,100309.23
2018-09-26T07:18:37.298Z,100305.20
2018-09-26T07:21:06.143Z,100298.47
2018-09-26T07:23:34.911Z,100284.04
2018-09-26T07:26:03.693Z,100282.70
2018-09-26T07:28:32.554Z,100278.66
2018-09-26T07:31:01.419Z,100268.39
2018-09-26T07:33:30.281Z,100260.31
2018-09-26T07:35:59.520Z,100242.67
2018-09-26T07:38:28.383Z,100254.45
2018-09-26T07:40:57.189Z,100244.88
2018-09-26T07:43:26.038Z,100223.35
2018-09-26T07:45:54.834Z,100220.66
2018-09-26T07:48:23.679Z,100205.01
2018-09-26T07:50:52.610Z,100206.36
2018-09-26T07:53:21.539Z,100198.65
2018-09-26T07:55:50.366Z,100183.85
2018-09-26T07:58:19.119Z,100184.70
2018-09-26T08:00:47.950Z,100182.87
2018-09-26T08:03:16.780Z,100176.64
2018-09-26T08:05:45.656Z,100162.70
2018-09-26T08:08:14.537Z,100138.48
2018-09-26T08:10:43.314Z,100132.08
2018-09-26T08:13:12.166Z,100111.58
2018-09-26T08:15:40.966Z,100106.20
2018-09-26T08:18:09.892Z,100083.66
2018-09-26T08:20:38.707Z,100073.91
2018-09-26T08:23:07.766Z,100084.19
2018-09-26T08:25:36.687Z,100088.72
2018-09-26T08:28:05.594Z,100091.73
2018-09-26T08:30:34.423Z,100077.79
2018-09-26T08:33:03.176Z,100076.44
2018-09-26T08:35:32.029Z,100076.94
2018-09-26T08:38:00.872Z,100081.83
2018-09-26T08:40:29.689Z,100070.57
2018-09-26T08:42:58.509Z,100047.34
2018-09-26T08:45:27.351Z,100041.14
2018-09-26T08:47:56.177Z,100027.69
2018-09-26T08:50:24.957Z,100030.38
2018-09-26T08:52:53.768Z,100027.16
2018-09-26T08:55:22.613Z,100032.22
2018-09-26T08:57:51.418Z,100003.12
2018-09-26T09:00:25.514Z,100006.66
2018-09-26T09:02:54.308Z,100000.92
2018-09-26T09:05:23.095Z,99996.89
2018-09-26T09:07:51.882Z,99976.71
2018-09-26T09:10:20.700Z,99956.17
2018-09-26T09:12:49.467Z,99973.53
2018-09-26T09:15:18.358Z,99974.02
2018-09-26T09:17:48.040Z,99971.33
2018-09-26T09:20:17.047Z,99965.95
2018-09-26T09:22:46.418Z,99965.82
2018-09-26T09:25:15.257Z,99953.35
2018-09-26T09:27:44.100Z,99949.45
2018-09-26T09:30:12.864Z,99970.97
2018-09-26T09:32:41.568Z,99935.67
2018-09-26T09:35:10.379Z,99939.22
2018-09-26T09:37:39.206Z,99910.97
2018-09-26T09:40:08.013Z,99918.02
2018-09-26T09:42:36.822Z,99929.28
2018-09-26T09:45:05.642Z,99914.48
2018-09-26T09:47:34.407Z,99905.06
2018-09-26T09:50:03.182Z,99910.97
2018-09-26T09:52:31.920Z,99912.31
2018-09-26T09:55:00.684Z,99906.41
2018-09-26T09:57:30.244Z,99886.77
2018-09-26T09:59:59.018Z,99879.19
2018-09-26T10:02:27.901Z,99871.97
2018-09-26T10:04:56.596Z,99867.94
2018-09-26T10:07:25.362Z,99856.33
2018-09-26T10:09:54.172Z,99865.24
2018-09-26T10:12:22.883Z,99865.73
2018-09-26T10:14:51.744Z,99857.99
2018-09-26T10:17:20.581Z,99843.73
2018-09-26T10:19:49.363Z,99836.47
2018-09-26T10:22:18.148Z,99854.81
2018-09-26T10:24:46.841Z,99833.29
2018-09-26T10:27:15.559Z,99832.80
2018-09-26T10:29:44.364Z,99835.48
2018-09-26T10:32:13.205Z,99823.38
2018-09-26T10:34:41.973Z,99822.39
2018-09-26T10:37:10.682Z,99824.23
2018-09-26T10:39:39.483Z,99825.09
2018-09-26T10:42:08.369Z,99805.89
2018-09-26T10:44:37.122Z,99801.37
2018-09-26T10:47:05.867Z,99783.88
2018-09-26T10:49:34.624Z,99786.08
2018-09-26T10:52:03.629Z,99787.42
2018-09-26T10:54:32.329Z,99787.92
2018-09-26T10:57:01.177Z,99782.53
2018-09-26T10:59:29.917Z,99801.37
2018-09-26T11:01:58.746Z,99794.15
2018-09-26T11:04:27.629Z,99797.33
2018-09-26T11:06:56.408Z,99783.39
2018-09-26T11:09:25.152Z,99776.17
2018-09-26T11:11:53.878Z,99783.39
2018-09-26T11:14:22.761Z,99774.96
2018-09-26T11:16:51.589Z,99762.86
2018-09-26T11:19:20.327Z,99759.67
2018-09-26T11:21:49.118Z,99761.52
2018-09-26T11:24:17.874Z,99760.66
2018-09-26T11:26:46.604Z,99753.09
2018-09-26T11:29:15.360Z,99750.40
2018-09-26T11:31:44.088Z,99762.01
2018-09-26T11:34:12.934Z,99755.45
2018-09-26T11:36:41.948Z,99755.09
2018-09-26T11:39:11.509Z,99755.45
2018-09-26T11:41:40.397Z,99762.17
2018-09-26T11:44:09.220Z,99764.52
2018-09-26T11:46:38.115Z,99731.55
2018-09-26T11:49:07.006Z,99735.95
2018-09-26T11:51:35.820Z,99726.67
2018-09-26T11:54:04.676Z,99738.96
2018-09-26T11:56:33.512Z,99735.23
2018-09-26T11:59:02.325Z,99720.97
2018-09-26T12:01:31.125Z,99712.90
2018-09-26T12:04:00.015Z,99712.90
2018-09-26T12:06:28.827Z,99722.45
2018-09-26T12:08:57.647Z,99717.08
2018-09-26T12:11:26.418Z,99697.39
2018-09-26T12:13:55.334Z,99699.59
2018-09-26T12:16:24.286Z,99716.22
2018-09-26T12:18:53.215Z,99714.88
2018-09-26T12:21:30.443Z,99719.08
2018-09-26T12:23:51.070Z,99722.12
2018-09-26T12:26:19.902Z,99704.29
2018-09-26T12:28:48.707Z,99728.50
2018-09-26T12:31:17.495Z,99712.00
2018-09-26T12:33:46.326Z,99694.03
2018-09-26T12:36:15.204Z,99696.89
2018-09-26T12:38:44.007Z,99694.52
2018-09-26T12:41:12.775Z,99687.48
2018-09-26T12:43:41.571Z,99675.70
2018-09-26T12:46:10.365Z,99674.88
2018-09-26T12:48:39.136Z,99696.89
2018-09-26T12:51:07.957Z,99703.94
2018-09-26T12:53:36.913Z,99702.59
2018-09-26T12:56:05.745Z,99686.45
2018-09-26T12:58:34.589Z,99695.87
2018-09-26T13:01:03.702Z,99669.50
2018-09-26T13:03:32.481Z,99683.27
2018-09-26T13:06:01.305Z,99673.86
2018-09-26T13:08:30.282Z,99667.13
2018-09-26T13:10:59.121Z,99659.42
2018-09-26T13:13:27.988Z,99658.22
2018-09-26T13:15:56.755Z,99646.47
2018-09-26T13:18:25.709Z,99647.31
2018-09-26T13:20:54.480Z,99652.84
2018-09-26T13:23:23.309Z,99635.71
2018-09-26T13:25:52.106Z,99624.95
2018-09-26T13:28:20.935Z,99630.33
2018-09-26T13:30:49.814Z,99637.06
2018-09-26T13:33:18.597Z,99647.81
2018-09-26T13:35:47.445Z,99646.47
2018-09-26T13:38:16.292Z,99659.91
2018-09-26T13:40:45.068Z,99651.84
2018-09-26T13:43:13.833Z,99651.84
2018-09-26T13:45:42.689Z,99657.72
2018-09-26T13:48:11.717Z,99657.23
2018-09-26T13:50:40.495Z,99656.73
2018-09-26T13:53:09.334Z,99661.43
2018-09-26T13:55:38.122Z,99660.91
2018-09-26T13:58:07.141Z,99645.80
2018-09-26T14:00:36.016Z,99644.45
2018-09-26T14:03:05.457Z,99655.70
2018-09-26T14:05:34.336Z,99644.94
2018-09-26T14:08:03.215Z,99646.78
2018-09-26T14:10:32.042Z,99645.61
2018-09-26T14:13:01.012Z,99649.15
2018-09-26T14:15:29.861Z,99653.67
2018-09-26T14:17:58.673Z,99654.17
2018-09-26T14:20:27.525Z,99663.09
2018-09-26T14:22:56.687Z,99663.59
2018-09-26T14:25:25.465Z,99664.57
2018-09-26T14:27:54.298Z,99672.64
2018-09-26T14:30:23.238Z,99667.27
2018-09-26T14:32:52.114Z,99665.06
2018-09-26T14:35:20.967Z,99648.61
2018-09-26T14:37:49.834Z,99646.41
2018-09-26T14:40:18.795Z,99663.54
2018-09-26T14:42:47.809Z,99661.20
2018-09-26T14:45:16.625Z,99666.58
2018-09-26T14:47:45.549Z,99655.15
2018-09-26T14:50:14.470Z,99659.67
2018-09-26T14:52:43.412Z,99657.84
2018-09-26T14:55:12.431Z,99653.80
2018-09-26T14:57:41.202Z,99672.27
2018-09-26T15:00:10.339Z,99682.17
2018-09-26T15:02:39.238Z,99685.89
2018-09-26T15:05:08.097Z,99700.67
2018-09-26T15:07:36.912Z,99704.03
2018-09-26T15:10:05.932Z,99697.14
2018-09-26T15:12:34.713Z,99690.59
2018-09-26T15:15:04.477Z,99679.48
2018-09-26T15:17:33.328Z,99689.24
2018-09-26T15:20:02.178Z,99684.31
2018-09-26T15:22:31.263Z,99676.43
2018-09-26T15:25:00.101Z,99700.62
2018-09-26T15:27:29.071Z,99674.77
2018-09-26T15:29:57.912Z,99687.71
2018-09-26T15:32:27.010Z,99689.86
2018-09-26T15:34:55.956Z,99758.11
2018-09-26T15:37:24.795Z,99791.86
2018-09-26T15:39:53.561Z,99809.69
2018-09-26T15:42:22.427Z,99806.91
2018-09-26T15:44:51.286Z,99821.44
2018-09-26T15:47:20.139Z,99820.94
2018-09-26T15:49:48.972Z,99826.48
2018-09-26T15:52:17.830Z,99831.38
2018-09-26T15:54:46.667Z,99825.14
2018-09-26T15:57:15.538Z,99827.34
2018-09-26T15:59:44.400Z,99825.63
2018-09-26T16:02:13.199Z,99836.88
2018-09-26T16:04:42.004Z,99865.47
2018-09-26T16:07:10.844Z,99859.23
2018-09-26T16:09:39.686Z,99861.57
2018-09-26T16:12:08.617Z,99869.14
2018-09-26T16:14:37.538Z,99872.33
2018-09-26T16:17:06.377Z,99859.34
2018-09-26T16:19:35.138Z,99855.31
2018-09-26T16:22:04.992Z,99852.62
2018-09-26T16:24:33.751Z,99865.25
2018-09-26T16:27:03.396Z,99864.88
2018-09-26T16:29:32.262Z,99879.18
2018-09-26T16:32:01.151Z,99857.67
2018-09-26T16:34:29.991Z,99855.97
2018-09-26T16:36:58.846Z,99851.94
2018-09-26T16:39:27.936Z,99851.61
2018-09-26T16:41:56.591Z,99861.34
2018-09-26T16:44:25.553Z,99855.11
2018-09-26T16:46:54.448Z,99862.36
2018-09-26T16:49:23.374Z,99873.61
2018-09-26T16:51:52.958Z,99879.84
2018-09-26T16:54:21.913Z,99886.20
2018-09-26T16:56:50.646Z,99887.55
2018-09-26T16:59:19.452Z,99900.98
2018-09-26T17:01:49.483Z,99901.48
2018-09-26T17:04:18.399Z,99904.03
2018-09-26T17:06:47.259Z,99918.66
2018-09-26T17:09:16.097Z,99923.87
2018-09-26T17:11:45.048Z,99930.98
2018-09-26T17:14:14.055Z,99936.23
2018-09-26T17:16:43.003Z,99947.80
2018-09-26T17:19:12.192Z,99942.30
2018-09-26T17:21:41.094Z,99938.26
2018-09-26T17:24:10.043Z,99944.49
2018-09-26T17:26:38.979Z,99963.64
2018-09-26T17:29:07.854Z,99965.34
2018-09-26T17:31:36.749Z,99965.67
2018-09-26T17:34:05.895Z,99980.83
2018-09-26T17:36:34.775Z,99952.85
2018-09-26T17:39:04.641Z,99976.79
2018-09-26T17:41:33.457Z,99963.84
2018-09-26T17:44:02.272Z,99969.22
2018-09-26T17:46:31.223Z,99974.09
2018-09-26T17:49:00.079Z,99981.31
2018-09-26T17:51:28.924Z,99999.16
2018-09-26T17:53:57.893Z,100006.01
2018-09-26T17:56:26.813Z,100002.34
2018-09-26T17:58:55.839Z,100004.17
2018-09-26T18:01:24.812Z,100009.91
2018-09-26T18:03:53.623Z,100016.64
2018-09-26T18:06:22.512Z,100024.21
2018-09-26T18:08:51.423Z,100024.21
2018-09-26T18:11:20.317Z,100025.20
2018-09-26T18:13:49.141Z,100025.56
2018-09-26T18:16:18.125Z,100027.88
2018-09-26T18:18:47.176Z,100020.67
2018-09-26T18:21:16.294Z,100024.34
2018-09-26T18:23:45.475Z,100023.84
2018-09-26T18:26:14.354Z,100017.13
2018-09-26T18:28:43.363Z,100036.31
2018-09-26T18:31:12.361Z,100035.45
2018-09-26T18:33:41.369Z,100040.84
2018-09-26T18:36:10.528Z,100058.65
2018-09-26T18:38:39.370Z,100052.94
2018-09-26T18:41:08.295Z,100056.48
2018-09-26T18:43:37.258Z,100061.34
2018-09-26T18:46:06.429Z,100067.08
2018-09-26T18:48:35.455Z,100067.23
2018-09-26T18:51:05.644Z,100072.95
2018-09-26T18:53:34.470Z,100076.98
2018-09-26T18:56:03.579Z,100085.05
2018-09-26T18:58:33.586Z,100086.88
2018-09-26T19:01:02.618Z,100084.20
2018-09-26T19:03:31.593Z,100082.84
2018-09-26T19:06:00.624Z,100087.73
2018-09-26T19:08:29.480Z,100095.80
2018-09-26T19:10:58.516Z,100093.61
2018-09-26T19:13:27.461Z,100095.80
2018-09-26T19:15:56.460Z,100100.69
2018-09-26T19:18:25.342Z,100101.19
2018-09-26T19:20:54.448Z,100094.45
2018-09-26T19:23:23.359Z,100107.58
2018-09-26T19:25:52.575Z,100111.08
2018-09-26T19:28:21.490Z,100113.77
2018-09-26T19:30:50.704Z,100117.97
2018-09-26T19:33:19.782Z,100130.44
2018-09-26T19:35:48.659Z,100132.77
2018-09-26T19:38:17.646Z,100133.74
2018-09-26T19:40:46.701Z,100133.25
2018-09-26T19:43:15.833Z,100148.89
2018-09-26T19:45:44.755Z,100148.53
2018-09-26T19:48:13.698Z,100152.08
2018-09-26T19:50:43.708Z,100154.27
2018-09-26T19:53:12.689Z,100151.09
2018-09-26T19:55:41.549Z,100157.81
2018-09-26T19:58:10.490Z,100167.23
2018-09-26T20:00:39.501Z,100163.20
2018-09-26T20:03:08.379Z,100162.83
2018-09-26T20:05:37.202Z,100167.23
2018-09-26T20:08:06.335Z,100175.79
2018-09-26T20:10:35.263Z,100181.00
2018-09-26T20:13:04.270Z,100179.17
2018-09-26T20:15:33.289Z,100182.55
2018-09-26T20:18:02.164Z,100184.62
2018-09-26T20:20:31.135Z,100192.41
2018-09-26T20:23:00.164Z,100186.37
2018-09-26T20:25:29.120Z,100197.34
2018-09-26T20:27:58.136Z,100198.53
2018-09-26T20:30:26.985Z,100193.84
2018-09-26T20:32:56.875Z,100196.25
2018-09-26T20:35:25.766Z,100197.30
2018-09-26T20:37:54.730Z,100193.14
2018-09-26T20:40:23.716Z,100212.66
2018-09-26T20:42:52.605Z,100209.16
2018-09-26T20:45:21.518Z,100220.98
2018-09-26T20:47:50.379Z,100218.00
2018-09-26T20:50:19.273Z,100215.52
2018-09-26T20:52:48.194Z,100217.06
2018-09-26T20:55:17.145Z,100233.91
2018-09-26T20:57:45.976Z,100232.76
2018-09-26T21:00:14.911Z,100233.48
2018-09-26T21:02:43.877Z,100237.36
2018-09-26T21:05:13.612Z,100241.11
2018-09-26T21:07:42.496Z,100248.04
2018-09-26T21:10:11.649Z,100250.93
2018-09-26T21:12:40.543Z,100249.59
2018-09-26T21:15:09.902Z,100258.03
2018-09-26T21:17:38.730Z,100266.43
2018-09-26T21:20:07.654Z,100265.94
2018-09-26T21:22:36.490Z,100258.72
2018-09-26T21:25:05.649Z,100260.55
2018-09-26T21:27:34.442Z,100266.63
2018-09-26T21:30:03.330Z,100266.30
2018-09-26T21:32:32.132Z,100269.81
2018-09-26T21:35:01.022Z,100271.69
2018-09-26T21:37:29.819Z,100273.36
2018-09-26T21:39:58.671Z,100277.89
2018-09-26T21:42:27.439Z,100280.58
2018-09-26T21:44:56.264Z,100293.06
2018-09-26T21:47:25.095Z,100298.84
2018-09-26T21:49:53.930Z,100301.53
2018-09-26T21:52:22.731Z,100294.80
2018-09-26T21:54:51.595Z,100312.30
2018-09-26T21:57:20.410Z,100307.87
2018-09-26T21:59:49.396Z,100318.17
2018-09-26T22:02:18.260Z,100323.56
2018-09-26T22:04:47.019Z,100329.27
2018-09-26T22:07:15.873Z,100336.37
2018-09-26T22:09:44.795Z,100326.58
2018-09-26T22:12:13.575Z,100320.70
2018-09-26T22:14:42.365Z,100321.20
2018-09-26T22:17:11.182Z,100322.22
2018-09-26T22:19:40.057Z,100323.07
2018-09-26T22:22:08.909Z,100326.09
2018-09-26T22:24:37.704Z,100329.64
2018-09-26T22:27:06.163Z,100327.44
2018-09-26T22:29:35.006Z,100328.78
2018-09-26T22:32:04.153Z,100335.52
2018-09-26T22:34:33.092Z,100327.11
2018-09-26T22:37:01.989Z,100334.33
2018-09-26T22:39:31.000Z,100333.44
2018-09-26T22:41:59.876Z,100337.48
2018-09-26T22:44:28.736Z,100342.00
2018-09-26T22:46:57.730Z,100334.42
2018-09-26T22:49:26.670Z,100334.42
2018-09-26T22:51:55.463Z,100336.30
2018-09-26T22:54:24.257Z,100337.11
2018-09-26T22:56:53.112Z,100333.08
2018-09-26T22:59:21.921Z,100334.42
2018-09-26T23:01:50.780Z,100333.59
2018-09-26T23:04:19.582Z,100345.19
2018-09-26T23:06:48.436Z,100350.24
2018-09-26T23:09:17.239Z,100358.66
2018-09-26T23:11:46.147Z,100352.37
2018-09-26T23:14:14.938Z,100354.77
2018-09-26T23:16:43.736Z,100354.77
2018-09-26T23:19:12.781Z,100350.24
2018-09-26T23:21:41.551Z,100357.46
2018-09-26T23:24:10.416Z,100361.50
2018-09-26T23:26:39.209Z,100361.13
2018-09-26T23:29:07.988Z,100375.13
2018-09-26T23:31:36.784Z,100370.55
2018-09-26T23:34:05.609Z,100364.84
2018-09-26T23:36:34.441Z,100367.53
2018-09-26T23:39:03.342Z,100372.06
2018-09-26T23:41:32.108Z,100369.86
2018-09-26T23:44:00.855Z,100369.86
2018-09-26T23:46:29.755Z,100377.08
2018-09-26T23:48:58.507Z,100382.98
2018-09-26T23:51:27.312Z,100387.02
2018-09-26T23:53:56.213Z,100392.05
2018-09-26T23:56:24.949Z,100378.59
2018-09-26T23:58:53.770Z,100377.73
